Terminal Aerodrome Forecast
Issued by NWS Wilmington, OH

Current Version | Previous Version | Text Only | Print | Product List | Glossary Off
Versions: 1 2 3 4 5 6 7 8 9 10 11 12 13 14 15 16 17 18 19 20 21 22 23 24 25

000
FTUS41 KILN 252300 RRA
TAFCVG
TAF
KCVG 252347Z 2600/2706 29010KT P6SM SCT040 BKN250
     FM260600 02008KT 5SM -SHRA BR OVC040
     FM260800 12009KT 3SM -SHRA BR VCTS SCT015 OVC025CB
     FM261200 33012G22KT 4SM -SHRA BR OVC010
     FM262000 32011G20KT 5SM BR OVC025
     FM262300 32011G20KT P6SM BKN035
     FM270200 32006KT P6SM BKN050=

USA.gov is the U.S. government's official web portal to all federal, state and local government web resources and services.